European Causeway — C6RG7 — position and weather

sailwx.info

Track history (hours):
 
Tides and Currents Weather Stations Pressure Air Temp Water Temp Dewpoint Dewpoint Depression Visibility Wind Speed Wind Dir Waves Ship Positions

European Causeway

Operator: P & O Irish Sea

Last reported at 2019-Dec-14 15:18 UTC. Time now 2019-Dec-15 09:55 UTC.
Position N 55°00' W 005°14'.

Length 145 m; draft 5 m.

Type: Passenger vessel. MMSI: 311027000.

Date/timePositionNaut miles runAvg speedWind from/ knotsBaromVisibWave heightAir tempDewpointWater temp
2019-Dec-14 15:18N 55°00' W 005°14'618.5
2019-Dec-14 14:59N 54°57' W 005°24'1017.8
2019-Dec-14 14:24N 54°53' W 005°41'5 2.5
2019-Dec-14 12:30N 54°51' W 005°48'0 0.0
2019-Dec-14 06:54N 54°51' W 005°48'0 0.0
2019-Dec-14 06:21N 54°51' W 005°48'0 0.0
2019-Dec-14 05:57N 54°51' W 005°48'1515.4
2019-Dec-14 04:59N 54°58' W 005°25'7 1.7
2019-Dec-14 01:06N 55°00' W 005°14'2212.7
2019-Dec-13 23:25N 54°51' W 005°48'0 0.0
2019-Dec-13 22:25N 54°51' W 005°48'8 1.5
2019-Dec-13 16:55N 54°54' W 005°35'1 0.1
2019-Dec-13 04:28N 54°55' W 005°34'9 3.6
2019-Dec-13 01:59N 54°51' W 005°48'0 0.0
2019-Dec-12 19:59N 54°51' W 005°48'22 4.2
2019-Dec-12 14:45N 55°00' W 005°13'2217.6
2019-Dec-12 13:30N 54°51' W 005°48'0 0.0
2019-Dec-12 12:30N 54°51' W 005°48'22 5.9
2019-Dec-12 08:47N 55°00' W 005°13'2217.2
2019-Dec-12 07:30N 54°51' W 005°48'20 3.7
2019-Dec-12 02:00N 54°60' W 005°16'1120.8
2019-Dec-12 01:27N 54°55' W 005°34'9 9.2
2019-Dec-12 00:30N 54°51' W 005°48'0 0.0
2019-Dec-12 00:01N 54°51' W 005°48'0 0.1
2019-Dec-11 22:31N 54°51' W 005°48'2011.3
2019-Dec-11 20:44N 55°01' W 005°17'16 1.7
2019-Dec-11 10:57N 54°53' W 005°42'16 6.8
2019-Dec-11 08:34N 55°00' W 005°17'1 0.5
2019-Dec-11 05:40N 55°00' W 005°14'2118.3
2019-Dec-11 04:30N 54°51' W 005°48'0 0.0
2019-Dec-11 03:27N 54°51' W 005°48'0 0.0
2019-Dec-11 03:00N 54°51' W 005°48'22 5.3
2019-Dec-10 22:52N 55°00' W 005°13'2219.4
2019-Dec-10 21:44N 54°51' W 005°48'0 0.2
2019-Dec-10 20:29N 54°51' W 005°48'21 4.9
2019-Dec-10 16:05N 54°60' W 005°14'2112.7
2019-Dec-10 14:24N 54°51' W 005°48'15 7.5
2019-Dec-10 12:27N 55°00' W 005°28'7 2.0
2019-Dec-10 08:55N 55°01' W 005°16'21 7.9
2019-Dec-10 06:17N 54°51' W 005°48'0 0.0
2019-Dec-09 22:00N 54°51' W 005°48'2116.1
2019-Dec-09 20:43N 55°01' W 005°16'2 0.5
2019-Dec-09 17:41N 54°60' W 005°14'18 1.3
2019-Dec-09 04:25N 54°53' W 005°42'4 3.5
2019-Dec-09 03:20N 54°51' W 005°48'8 1.2
2019-Dec-08 20:30N 54°54' W 005°35'815.8
2019-Dec-08 19:59N 54°51' W 005°48'7 3.2
2019-Dec-08 17:49N 54°54' W 005°37'7 1.4
2019-Dec-08 12:48N 54°51' W 005°48'0 0.0
2019-Dec-08 10:51N 54°51' W 005°48'0 0.0
2019-Dec-08 09:54N 54°51' W 005°48'7 7.0
2019-Dec-08 08:55N 54°54' W 005°38'9 0.8
2019-Dec-07 21:22N 54°58' W 005°23'1618.7
2019-Dec-07 20:31N 54°51' W 005°48'16 2.7
2019-Dec-07 14:29N 54°58' W 005°22'919.0
2019-Dec-07 13:59N 54°54' W 005°38'9 1.7
2019-Dec-07 08:30N 54°58' W 005°22'16 9.5
2019-Dec-07 06:47N 54°51' W 005°48'0 0.0
2019-Dec-07 06:29N 54°51' W 005°48'16 3.0
2019-Dec-07 00:59N 54°58' W 005°22'1616.6
2019-Dec-07 00:00N 54°51' W 005°48'0 0.1
2019-Dec-06 23:28N 54°51' W 005°48'6 2.7
2019-Dec-06 21:20N 54°54' W 005°40'920.1
2019-Dec-06 20:53N 54°58' W 005°26'7 2.1
2019-Dec-06 17:42N 54°60' W 005°14'1520.7
2019-Dec-06 17:00N 54°54' W 005°37'7 6.4
2019-Dec-06 15:56N 54°51' W 005°48'2011.7
2019-Dec-06 14:13N 54°60' W 005°16'2 0.9
2019-Dec-06 11:42N 55°00' W 005°12'1520.9
2019-Dec-06 10:57N 54°54' W 005°37'0 0.0
2019-Dec-06 04:21N 54°54' W 005°37'7 2.9
2019-Dec-06 02:00N 54°51' W 005°48'713.6
2019-Dec-06 01:31N 54°54' W 005°38'7 1.1
2019-Dec-05 19:14N 54°51' W 005°48'0 0.1
2019-Dec-05 18:29N 54°51' W 005°48'2017.5
2019-Dec-05 17:20N 55°00' W 005°17'20 5.2
2019-Dec-05 13:30N 54°51' W 005°48'0 0.0
2019-Dec-05 12:32N 54°51' W 005°48'22 5.8
2019-Dec-05 08:45N 55°00' W 005°13'22 8.0
2019-Dec-05 06:00N 54°51' W 005°48'611.7
2019-Dec-05 05:30N 54°54' W 005°39'1519.8
2019-Dec-05 04:45N 55°00' W 005°16'4 1.1
2019-Dec-05 00:52N 54°57' W 005°22'11 1.4
2019-Dec-04 16:59N 54°53' W 005°40'  
Track history (hours):
 
Tides and Currents Weather Stations Pressure Air Temp Water Temp Dewpoint Dewpoint Depression Visibility Wind Speed Wind Dir Waves Ship Positions

European Causeway

Operator: P & O Irish Sea

Last reported at 2019-Dec-14 15:18 UTC. Time now 2019-Dec-15 09:55 UTC.
Position N 55°00' W 005°14'.

Length 145 m; draft 5 m.

Type: Passenger vessel. MMSI: 311027000.

Date/timePositionNaut miles runAvg speedWind from/ knotsBaromVisibWave heightAir tempDewpointWater temp
2019-Dec-14 15:18N 55°00' W 005°14'618.5
2019-Dec-14 14:59N 54°57' W 005°24'1017.8
2019-Dec-14 14:24N 54°53' W 005°41'5 2.5
2019-Dec-14 12:30N 54°51' W 005°48'0 0.0
2019-Dec-14 06:54N 54°51' W 005°48'0 0.0
2019-Dec-14 06:21N 54°51' W 005°48'0 0.0
2019-Dec-14 05:57N 54°51' W 005°48'1515.4
2019-Dec-14 04:59N 54°58' W 005°25'7 1.7
2019-Dec-14 01:06N 55°00' W 005°14'2212.7
2019-Dec-13 23:25N 54°51' W 005°48'0 0.0
2019-Dec-13 22:25N 54°51' W 005°48'8 1.5
2019-Dec-13 16:55N 54°54' W 005°35'1 0.1
2019-Dec-13 04:28N 54°55' W 005°34'9 3.6
2019-Dec-13 01:59N 54°51' W 005°48'0 0.0
2019-Dec-12 19:59N 54°51' W 005°48'22 4.2
2019-Dec-12 14:45N 55°00' W 005°13'2217.6
2019-Dec-12 13:30N 54°51' W 005°48'0 0.0
2019-Dec-12 12:30N 54°51' W 005°48'22 5.9
2019-Dec-12 08:47N 55°00' W 005°13'2217.2
2019-Dec-12 07:30N 54°51' W 005°48'20 3.7
2019-Dec-12 02:00N 54°60' W 005°16'1120.8
2019-Dec-12 01:27N 54°55' W 005°34'9 9.2
2019-Dec-12 00:30N 54°51' W 005°48'0 0.0
2019-Dec-12 00:01N 54°51' W 005°48'0 0.1
2019-Dec-11 22:31N 54°51' W 005°48'2011.3
2019-Dec-11 20:44N 55°01' W 005°17'16 1.7
2019-Dec-11 10:57N 54°53' W 005°42'16 6.8
2019-Dec-11 08:34N 55°00' W 005°17'1 0.5
2019-Dec-11 05:40N 55°00' W 005°14'2118.3
2019-Dec-11 04:30N 54°51' W 005°48'0 0.0
2019-Dec-11 03:27N 54°51' W 005°48'0 0.0
2019-Dec-11 03:00N 54°51' W 005°48'22 5.3
2019-Dec-10 22:52N 55°00' W 005°13'2219.4
2019-Dec-10 21:44N 54°51' W 005°48'0 0.2
2019-Dec-10 20:29N 54°51' W 005°48'21 4.9
2019-Dec-10 16:05N 54°60' W 005°14'2112.7
2019-Dec-10 14:24N 54°51' W 005°48'15 7.5
2019-Dec-10 12:27N 55°00' W 005°28'7 2.0
2019-Dec-10 08:55N 55°01' W 005°16'21 7.9
2019-Dec-10 06:17N 54°51' W 005°48'0 0.0
2019-Dec-09 22:00N 54°51' W 005°48'2116.1
2019-Dec-09 20:43N 55°01' W 005°16'2 0.5
2019-Dec-09 17:41N 54°60' W 005°14'18 1.3
2019-Dec-09 04:25N 54°53' W 005°42'4 3.5
2019-Dec-09 03:20N 54°51' W 005°48'8 1.2
2019-Dec-08 20:30N 54°54' W 005°35'815.8
2019-Dec-08 19:59N 54°51' W 005°48'7 3.2
2019-Dec-08 17:49N 54°54' W 005°37'7 1.4
2019-Dec-08 12:48N 54°51' W 005°48'0 0.0
2019-Dec-08 10:51N 54°51' W 005°48'0 0.0
2019-Dec-08 09:54N 54°51' W 005°48'7 7.0
2019-Dec-08 08:55N 54°54' W 005°38'9 0.8
2019-Dec-07 21:22N 54°58' W 005°23'1618.7
2019-Dec-07 20:31N 54°51' W 005°48'16 2.7
2019-Dec-07 14:29N 54°58' W 005°22'919.0
2019-Dec-07 13:59N 54°54' W 005°38'9 1.7
2019-Dec-07 08:30N 54°58' W 005°22'16 9.5
2019-Dec-07 06:47N 54°51' W 005°48'0 0.0
2019-Dec-07 06:29N 54°51' W 005°48'16 3.0
2019-Dec-07 00:59N 54°58' W 005°22'1616.6
2019-Dec-07 00:00N 54°51' W 005°48'0 0.1
2019-Dec-06 23:28N 54°51' W 005°48'6 2.7
2019-Dec-06 21:20N 54°54' W 005°40'920.1
2019-Dec-06 20:53N 54°58' W 005°26'7 2.1
2019-Dec-06 17:42N 54°60' W 005°14'1520.7
2019-Dec-06 17:00N 54°54' W 005°37'7 6.4
2019-Dec-06 15:56N 54°51' W 005°48'2011.7
2019-Dec-06 14:13N 54°60' W 005°16'2 0.9
2019-Dec-06 11:42N 55°00' W 005°12'1520.9
2019-Dec-06 10:57N 54°54' W 005°37'0 0.0
2019-Dec-06 04:21N 54°54' W 005°37'7 2.9
2019-Dec-06 02:00N 54°51' W 005°48'713.6
2019-Dec-06 01:31N 54°54' W 005°38'7 1.1
2019-Dec-05 19:14N 54°51' W 005°48'0 0.1
2019-Dec-05 18:29N 54°51' W 005°48'2017.5
2019-Dec-05 17:20N 55°00' W 005°17'20 5.2
2019-Dec-05 13:30N 54°51' W 005°48'0 0.0
2019-Dec-05 12:32N 54°51' W 005°48'22 5.8
2019-Dec-05 08:45N 55°00' W 005°13'22 8.0
2019-Dec-05 06:00N 54°51' W 005°48'611.7
2019-Dec-05 05:30N 54°54' W 005°39'1519.8
2019-Dec-05 04:45N 55°00' W 005°16'4 1.1
2019-Dec-05 00:52N 54°57' W 005°22'11 1.4
2019-Dec-04 16:59N 54°53' W 005°40'  

Dump ship's entire track history